createdAt,value
2022-09-18T00:01:33.674Z,96332.25
2022-09-18T00:04:04.873Z,96338.38
2022-09-18T00:06:36.765Z,96335.72
2022-09-18T00:09:06.949Z,96345.97
2022-09-18T00:11:41.519Z,96336.16
2022-09-18T00:14:12.521Z,96332.69
2022-09-18T00:16:40.464Z,96329.47
2022-09-18T00:19:08.557Z,96333.59
2022-09-18T00:21:37.554Z,96327.13
2022-09-18T00:24:05.880Z,96330.69
2022-09-18T00:26:33.514Z,96332.41
2022-09-18T00:29:00.870Z,96329.41
2022-09-18T00:31:36.770Z,96331.50
2022-09-18T00:34:10.579Z,96338.97
2022-09-18T00:36:39.464Z,96336.91
2022-09-18T00:39:08.102Z,96336.03
2022-09-18T00:41:39.541Z,96338.19
2022-09-18T00:44:39.297Z,96327.50
2022-09-18T00:47:18.109Z,96332.06
2022-09-18T00:50:21.263Z,96326.56
2022-09-18T00:53:02.048Z,96334.91
2022-09-18T00:55:34.428Z,96331.00
2022-09-18T00:58:03.370Z,96328.91
2022-09-18T01:00:31.801Z,96326.00
2022-09-18T01:03:04.149Z,96333.63
2022-09-18T01:06:20.842Z,96331.56
2022-09-18T01:09:37.197Z,96332.00
2022-09-18T01:12:20.274Z,96340.41
2022-09-18T01:15:14.821Z,96338.47
2022-09-18T01:18:05.319Z,96341.91
2022-09-18T01:21:01.796Z,96343.03
2022-09-18T01:24:07.951Z,96340.41
2022-09-18T01:27:10.682Z,96339.00
2022-09-18T01:29:50.530Z,96341.34
2022-09-18T01:32:46.169Z,96344.34
2022-09-18T01:35:42.593Z,96345.91
2022-09-18T01:38:36.165Z,96344.53
2022-09-18T01:41:14.586Z,96346.09
2022-09-18T01:43:44.436Z,96345.91
2022-09-18T01:46:17.732Z,96344.25
2022-09-18T01:49:07.334Z,96343.97
2022-09-18T01:52:01.561Z,96348.16
2022-09-18T01:54:35.629Z,96346.88
2022-09-18T01:57:42.925Z,96351.56
2022-09-18T02:00:14.408Z,96351.91
2022-09-18T02:02:58.337Z,96357.94
2022-09-18T02:05:37.676Z,96353.50
2022-09-18T02:08:21.008Z,96363.66
2022-09-18T02:11:03.243Z,96364.22
2022-09-18T02:13:42.394Z,96366.38
2022-09-18T02:16:21.117Z,96359.34
2022-09-18T02:18:56.391Z,96368.06
2022-09-18T02:21:28.644Z,96371.47
2022-09-18T02:24:10.497Z,96367.56
2022-09-18T02:26:40.554Z,96362.03
2022-09-18T02:29:12.417Z,96360.94
2022-09-18T02:31:41.359Z,96367.22
2022-09-18T02:34:11.575Z,96360.09
2022-09-18T02:37:00.368Z,96363.28
2022-09-18T02:40:31.370Z,96359.38
2022-09-18T02:43:33.089Z,96365.25
2022-09-18T02:46:29.001Z,96364.28
2022-09-18T02:49:23.775Z,96366.06
2022-09-18T02:52:25.729Z,96366.03
2022-09-18T02:55:18.886Z,96366.31
2022-09-18T02:58:00.809Z,96363.97
2022-09-18T03:00:31.554Z,96367.13
2022-09-18T03:03:00.399Z,96364.41
2022-09-18T03:05:39.809Z,96371.78
2022-09-18T03:08:07.190Z,96364.38
2022-09-18T03:10:34.481Z,96355.94
2022-09-18T03:13:01.944Z,96362.72
2022-09-18T03:15:29.187Z,96361.38
2022-09-18T03:17:57.889Z,96359.31
2022-09-18T03:20:28.330Z,96356.41
2022-09-18T03:22:55.616Z,96370.63
2022-09-18T03:25:22.912Z,96379.09
2022-09-18T03:27:57.650Z,96371.22
2022-09-18T03:30:36.516Z,96375.25
2022-09-18T03:33:04.230Z,96371.78
2022-09-18T03:35:32.476Z,96375.19
2022-09-18T03:37:59.878Z,96383.06
2022-09-18T03:40:30.505Z,96388.41
2022-09-18T03:42:59.053Z,96374.22
2022-09-18T03:45:26.830Z,96375.50
2022-09-18T03:47:57.355Z,96383.72
2022-09-18T03:50:25.479Z,96376.00
2022-09-18T03:52:53.406Z,96380.78
2022-09-18T03:55:43.836Z,96380.53
2022-09-18T03:58:45.883Z,96379.19
2022-09-18T04:01:26.674Z,96378.97
2022-09-18T04:04:13.311Z,96379.75
2022-09-18T04:07:07.973Z,96374.03
2022-09-18T04:09:53.771Z,96377.25
2022-09-18T04:12:21.084Z,96377.69
2022-09-18T04:14:56.712Z,96381.50
2022-09-18T04:17:24.321Z,96369.69
2022-09-18T04:19:53.785Z,96376.53
2022-09-18T04:22:22.522Z,96374.19
2022-09-18T04:24:50.622Z,96379.47
2022-09-18T04:27:18.699Z,96370.31
2022-09-18T04:29:46.394Z,96373.94
2022-09-18T04:32:15.041Z,96376.06
2022-09-18T04:34:43.369Z,96374.97
2022-09-18T04:37:11.601Z,96375.31
2022-09-18T04:39:39.688Z,96378.19
2022-09-18T04:42:06.994Z,96376.09
2022-09-18T04:44:34.361Z,96378.22
2022-09-18T04:47:02.167Z,96377.63
2022-09-18T04:49:29.418Z,96366.28
2022-09-18T04:51:56.732Z,96372.84
2022-09-18T04:54:24.886Z,96375.97
2022-09-18T04:56:52.472Z,96374.41
2022-09-18T04:59:20.166Z,96378.31
2022-09-18T05:01:48.400Z,96374.63
2022-09-18T05:04:16.718Z,96370.59
2022-09-18T05:06:53.118Z,96376.81
2022-09-18T05:09:20.467Z,96378.59
2022-09-18T05:11:47.691Z,96377.47
2022-09-18T05:14:16.549Z,96376.38
2022-09-18T05:16:47.744Z,96380.56
2022-09-18T05:19:26.806Z,96380.16
2022-09-18T05:22:00.550Z,96374.72
2022-09-18T05:24:27.869Z,96373.63
2022-09-18T05:26:55.092Z,96384.81
2022-09-18T05:29:22.992Z,96371.94
2022-09-18T05:31:52.538Z,96376.38
2022-09-18T05:34:19.925Z,96381.31
2022-09-18T05:36:47.337Z,96384.78
2022-09-18T05:39:17.629Z,96382.97
2022-09-18T05:41:48.337Z,96374.34
2022-09-18T05:44:15.631Z,96382.06
2022-09-18T05:46:43.119Z,96373.63
2022-09-18T05:49:11.103Z,96372.81
2022-09-18T05:51:39.192Z,96371.56
2022-09-18T05:54:07.919Z,96376.97
2022-09-18T05:56:41.923Z,96374.16
2022-09-18T05:59:09.335Z,96373.31
2022-09-18T06:01:36.681Z,96371.44
2022-09-18T06:04:16.967Z,96377.41
2022-09-18T06:07:05.438Z,96378.78
2022-09-18T06:09:33.180Z,96376.19
2022-09-18T06:12:00.560Z,96385.50
2022-09-18T06:14:27.840Z,96376.56
2022-09-18T06:16:55.684Z,96380.50
2022-09-18T06:19:23.067Z,96384.88
2022-09-18T06:21:52.654Z,96374.75
2022-09-18T06:24:21.547Z,96370.41
2022-09-18T06:27:06.971Z,96363.38
2022-09-18T06:29:34.596Z,96381.56
2022-09-18T06:32:24.950Z,96384.09
2022-09-18T06:34:54.007Z,96385.19
2022-09-18T06:37:21.391Z,96389.00
2022-09-18T06:40:25.708Z,96392.59
2022-09-18T06:43:31.530Z,96390.31
2022-09-18T06:46:11.533Z,96384.16
2022-09-18T06:48:43.933Z,96395.84
2022-09-18T06:51:12.329Z,96394.63
2022-09-18T06:53:59.527Z,96386.19
2022-09-18T06:56:26.791Z,96396.06
2022-09-18T06:58:55.142Z,96398.56
2022-09-18T07:01:22.637Z,96396.75
2022-09-18T07:03:53.436Z,96400.94
2022-09-18T07:06:24.080Z,96406.03
2022-09-18T07:08:53.400Z,96409.09
2022-09-18T07:11:40.880Z,96402.78
2022-09-18T07:14:09.381Z,96415.66
2022-09-18T07:16:37.074Z,96419.91
2022-09-18T07:19:04.818Z,96413.94
2022-09-18T07:21:32.144Z,96413.88
2022-09-18T07:23:59.344Z,96421.81
2022-09-18T07:26:26.734Z,96419.78
2022-09-18T07:28:54.250Z,96422.84
2022-09-18T07:31:27.255Z,96431.56
2022-09-18T07:33:56.399Z,96432.94
2022-09-18T07:36:28.139Z,96430.41
2022-09-18T07:38:56.373Z,96427.03
2022-09-18T07:41:27.032Z,96434.09
2022-09-18T07:43:55.035Z,96432.69
2022-09-18T07:46:22.560Z,96429.59
2022-09-18T07:48:52.818Z,96422.03
2022-09-18T07:51:27.395Z,96423.28
2022-09-18T07:53:56.683Z,96435.28
2022-09-18T07:56:38.124Z,96432.25
2022-09-18T07:59:05.536Z,96431.19
2022-09-18T08:01:35.458Z,96432.53
2022-09-18T08:04:06.483Z,96434.78
2022-09-18T08:06:36.552Z,96424.56
2022-09-18T08:09:26.617Z,96428.16
2022-09-18T08:12:09.175Z,96430.81
2022-09-18T08:14:55.411Z,96441.00
2022-09-18T08:17:47.262Z,96439.84
2022-09-18T08:20:23.717Z,96432.72
2022-09-18T08:22:54.124Z,96423.97
2022-09-18T08:25:28.094Z,96426.78
2022-09-18T08:28:01.756Z,96446.59
2022-09-18T08:30:46.582Z,96439.41
2022-09-18T08:33:14.052Z,96449.81
2022-09-18T08:35:41.699Z,96448.09
2022-09-18T08:38:28.159Z,96452.91
2022-09-18T08:41:42.740Z,96451.84
2022-09-18T08:44:28.019Z,96442.47
2022-09-18T08:47:01.293Z,96450.31
2022-09-18T08:49:34.014Z,96432.88
2022-09-18T08:52:21.713Z,96433.75
2022-09-18T08:55:27.939Z,96433.59
2022-09-18T08:58:28.973Z,96428.53
2022-09-18T09:01:15.990Z,96430.69
2022-09-18T09:04:01.702Z,96423.22
2022-09-18T09:06:57.319Z,96428.72
2022-09-18T09:10:05.520Z,96432.59
2022-09-18T09:13:15.497Z,96429.41
2022-09-18T09:16:17.151Z,96435.03
2022-09-18T09:19:01.343Z,96429.50
2022-09-18T09:22:05.483Z,96432.91
2022-09-18T09:24:58.023Z,96432.41
2022-09-18T09:28:19.889Z,96444.31
2022-09-18T09:31:18.474Z,96442.25
2022-09-18T09:34:19.784Z,96432.53
2022-09-18T09:37:04.071Z,96439.13
2022-09-18T09:39:41.621Z,96452.31
2022-09-18T09:42:34.418Z,96448.09
2022-09-18T09:45:25.324Z,96449.78
2022-09-18T09:48:23.091Z,96442.19
2022-09-18T09:51:15.299Z,96457.34
2022-09-18T09:53:44.606Z,96457.34
2022-09-18T09:56:46.546Z,96465.00
2022-09-18T09:59:38.222Z,96466.22
2022-09-18T10:02:57.081Z,96471.75
2022-09-18T10:05:57.760Z,96475.06
2022-09-18T10:08:44.433Z,96473.00
2022-09-18T10:11:13.480Z,96469.25
2022-09-18T10:14:17.191Z,96471.34
2022-09-18T10:16:52.201Z,96468.91
2022-09-18T10:19:22.567Z,96466.66
2022-09-18T10:21:54.731Z,96474.56
2022-09-18T10:24:33.993Z,96485.94
2022-09-18T10:27:14.338Z,96474.88
2022-09-18T10:29:43.157Z,96477.16
2022-09-18T10:32:37.928Z,96484.84
2022-09-18T10:35:34.664Z,96488.34
2022-09-18T10:38:02.255Z,96486.59
2022-09-18T10:40:39.782Z,96492.16
2022-09-18T10:43:18.640Z,96498.13
2022-09-18T10:45:56.189Z,96492.94
2022-09-18T10:48:44.502Z,96497.13
2022-09-18T10:51:20.531Z,96494.72
2022-09-18T10:54:29.881Z,96492.25
2022-09-18T10:57:29.390Z,96490.13
2022-09-18T10:59:58.738Z,96502.94
2022-09-18T11:02:34.006Z,96501.25
2022-09-18T11:05:03.215Z,96502.81
2022-09-18T11:07:39.986Z,96508.47
2022-09-18T11:10:09.737Z,96506.25
2022-09-18T11:12:55.436Z,96511.31
2022-09-18T11:15:36.369Z,96507.06
2022-09-18T11:18:12.599Z,96518.25
2022-09-18T11:20:45.173Z,96512.59
2022-09-18T11:23:29.049Z,96511.03
2022-09-18T11:26:28.916Z,96520.63
2022-09-18T11:29:24.961Z,96522.31
2022-09-18T11:32:31.900Z,96527.88
2022-09-18T11:35:13.329Z,96538.31
2022-09-18T11:37:53.112Z,96539.75
2022-09-18T11:40:30.386Z,96540.63
2022-09-18T11:42:58.975Z,96547.13
2022-09-18T11:46:13.512Z,96550.03
2022-09-18T11:49:05.884Z,96553.84
2022-09-18T11:52:03.647Z,96556.78
2022-09-18T11:55:00.195Z,96568.31
2022-09-18T11:57:48.915Z,96567.47
2022-09-18T12:00:19.389Z,96569.84
2022-09-18T12:03:27.905Z,96579.09
2022-09-18T12:06:10.444Z,96579.09
2022-09-18T12:08:58.340Z,96573.38
2022-09-18T12:12:08.914Z,96585.59
2022-09-18T12:15:03.255Z,96578.97
2022-09-18T12:17:56.854Z,96579.63
2022-09-18T12:20:32.003Z,96581.09
2022-09-18T12:23:02.754Z,96592.75
2022-09-18T12:26:24.873Z,96586.06
2022-09-18T12:29:22.749Z,96577.69
2022-09-18T12:32:24.528Z,96574.53
2022-09-18T12:34:59.515Z,96574.81
2022-09-18T12:37:38.717Z,96570.19
2022-09-18T12:40:43.856Z,96574.69
2022-09-18T12:43:33.033Z,96575.53
2022-09-18T12:46:26.332Z,96581.41
2022-09-18T12:49:40.793Z,96575.88
2022-09-18T12:52:55.168Z,96572.44
2022-09-18T12:56:20.756Z,96572.88
2022-09-18T12:59:28.079Z,96580.25
2022-09-18T13:02:49.294Z,96581.44
2022-09-18T13:05:35.530Z,96588.59
2022-09-18T13:08:14.038Z,96592.84
2022-09-18T13:10:47.318Z,96591.31
2022-09-18T13:13:35.429Z,96591.09
2022-09-18T13:16:15.560Z,96602.56
2022-09-18T13:18:50.823Z,96602.44
2022-09-18T13:21:29.985Z,96608.53
2022-09-18T13:24:00.066Z,96609.03
2022-09-18T13:26:33.352Z,96607.31
2022-09-18T13:29:01.251Z,96596.59
2022-09-18T13:31:29.718Z,96604.53
2022-09-18T13:34:05.149Z,96599.03
2022-09-18T13:36:40.080Z,96604.53
2022-09-18T13:39:27.726Z,96601.97
2022-09-18T13:42:00.485Z,96603.69
2022-09-18T13:44:36.126Z,96604.97
2022-09-18T13:47:15.168Z,96611.31
2022-09-18T13:50:00.268Z,96620.66
2022-09-18T13:52:29.616Z,96619.19
2022-09-18T13:55:25.327Z,96622.84
2022-09-18T13:58:13.240Z,96629.84
2022-09-18T14:00:41.861Z,96624.09
2022-09-18T14:03:09.114Z,96626.38
2022-09-18T14:05:38.706Z,96630.41
2022-09-18T14:08:38.680Z,96633.13
2022-09-18T14:11:17.566Z,96641.38
2022-09-18T14:13:58.997Z,96633.13
2022-09-18T14:16:38.892Z,96626.53
2022-09-18T14:19:36.281Z,96626.22
2022-09-18T14:22:03.817Z,96620.75
2022-09-18T14:24:49.515Z,96617.59
2022-09-18T14:27:35.469Z,96616.81
2022-09-18T14:30:17.404Z,96615.06
2022-09-18T14:33:13.625Z,96612.66
2022-09-18T14:35:58.904Z,96617.44
2022-09-18T14:38:37.291Z,96622.50
2022-09-18T14:41:19.423Z,96610.97
2022-09-18T14:44:00.259Z,96614.84
2022-09-18T14:46:28.781Z,96614.41
2022-09-18T14:48:56.457Z,96614.41
2022-09-18T14:51:28.324Z,96610.19
2022-09-18T14:53:58.922Z,96610.53
2022-09-18T14:56:29.518Z,96607.22
2022-09-18T14:59:01.418Z,96603.44
2022-09-18T15:01:32.085Z,96604.44
2022-09-18T15:04:02.190Z,96606.41
2022-09-18T15:06:54.635Z,96612.91
2022-09-18T15:09:33.216Z,96604.38
2022-09-18T15:12:02.985Z,96615.38
2022-09-18T15:14:45.462Z,96611.66
2022-09-18T15:17:22.025Z,96614.56
2022-09-18T15:20:17.047Z,96625.72
2022-09-18T15:22:44.619Z,96620.44
2022-09-18T15:25:16.646Z,96623.19
2022-09-18T15:27:45.555Z,96617.34
2022-09-18T15:30:22.795Z,96602.66
2022-09-18T15:33:05.260Z,96609.56
2022-09-18T15:35:37.897Z,96606.81
2022-09-18T15:38:14.291Z,96608.41
2022-09-18T15:40:43.605Z,96605.94
2022-09-18T15:43:33.759Z,96609.56
2022-09-18T15:46:33.248Z,96601.81
2022-09-18T15:49:04.116Z,96609.75
2022-09-18T15:51:34.103Z,96599.47
2022-09-18T15:54:13.592Z,96603.31
2022-09-18T15:57:00.292Z,96601.13
2022-09-18T15:59:35.208Z,96596.44
2022-09-18T16:02:21.394Z,96599.47
2022-09-18T16:04:48.809Z,96596.91
2022-09-18T16:07:24.617Z,96593.34
2022-09-18T16:09:52.188Z,96602.25
2022-09-18T16:12:31.632Z,96594.91
2022-09-18T16:15:15.756Z,96596.38
2022-09-18T16:17:46.085Z,96597.69
2022-09-18T16:20:24.743Z,96599.41
2022-09-18T16:23:19.986Z,96594.16
2022-09-18T16:26:13.022Z,96593.28
2022-09-18T16:28:51.219Z,96591.28
2022-09-18T16:31:22.536Z,96592.53
2022-09-18T16:34:02.007Z,96594.06
2022-09-18T16:36:39.104Z,96587.97
2022-09-18T16:39:16.069Z,96586.41
2022-09-18T16:41:45.425Z,96595.94
2022-09-18T16:44:15.339Z,96610.31
2022-09-18T16:46:49.869Z,96599.09
2022-09-18T16:49:25.351Z,96595.44
2022-09-18T16:51:55.720Z,96602.53
2022-09-18T16:54:23.183Z,96598.16
2022-09-18T16:57:20.439Z,96595.47
2022-09-18T16:59:49.734Z,96598.66
2022-09-18T17:02:23.305Z,96603.19
2022-09-18T17:04:53.461Z,96603.75
2022-09-18T17:07:20.720Z,96603.78
2022-09-18T17:09:47.995Z,96602.78
2022-09-18T17:12:15.287Z,96621.31
2022-09-18T17:14:42.482Z,96618.16
2022-09-18T17:17:09.840Z,96623.41
2022-09-18T17:19:39.407Z,96619.25
2022-09-18T17:22:07.759Z,96624.53
2022-09-18T17:24:35.076Z,96626.31
2022-09-18T17:27:02.452Z,96617.91
2022-09-18T17:29:29.819Z,96621.63
2022-09-18T17:31:57.446Z,96629.25
2022-09-18T17:34:24.848Z,96630.56
2022-09-18T17:36:52.081Z,96632.41
2022-09-18T17:39:19.417Z,96633.50
2022-09-18T17:41:46.739Z,96635.56
2022-09-18T17:44:15.354Z,96639.28
2022-09-18T17:46:42.724Z,96638.47
2022-09-18T17:49:10.109Z,96633.78
2022-09-18T17:51:37.622Z,96637.19
2022-09-18T17:54:05.991Z,96631.22
2022-09-18T17:56:34.272Z,96630.94
2022-09-18T17:59:06.237Z,96638.88
2022-09-18T18:01:37.752Z,96640.16
2022-09-18T18:04:06.804Z,96638.81
2022-09-18T18:06:35.738Z,96637.22
2022-09-18T18:09:05.439Z,96635.56
2022-09-18T18:11:33.442Z,96635.25
2022-09-18T18:14:00.812Z,96628.97
2022-09-18T18:16:31.161Z,96638.47
2022-09-18T18:19:02.781Z,96634.28
2022-09-18T18:21:32.342Z,96634.78
2022-09-18T18:24:04.819Z,96636.66
2022-09-18T18:26:32.640Z,96630.88
2022-09-18T18:29:00.772Z,96631.91
2022-09-18T18:31:28.905Z,96630.13
2022-09-18T18:33:57.498Z,96634.13
2022-09-18T18:36:31.374Z,96635.44
2022-09-18T18:39:01.309Z,96636.22
2022-09-18T18:41:31.580Z,96643.59
2022-09-18T18:44:03.263Z,96636.25
2022-09-18T18:46:36.325Z,96634.19
2022-09-18T18:49:11.083Z,96634.69
2022-09-18T18:51:46.009Z,96635.78
2022-09-18T18:54:19.204Z,96627.03
2022-09-18T18:56:48.220Z,96637.06
2022-09-18T18:59:18.295Z,96633.63
2022-09-18T19:01:47.364Z,96627.50
2022-09-18T19:04:19.198Z,96628.81
2022-09-18T19:06:48.779Z,96631.13
2022-09-18T19:09:24.406Z,96627.44
2022-09-18T19:11:54.035Z,96621.84
2022-09-18T19:14:30.317Z,96622.34
2022-09-18T19:16:58.245Z,96616.03
2022-09-18T19:19:28.427Z,96622.59
2022-09-18T19:21:59.836Z,96611.19
2022-09-18T19:24:28.326Z,96616.63
2022-09-18T19:26:55.619Z,96618.34
2022-09-18T19:29:22.958Z,96617.50
2022-09-18T19:31:50.896Z,96619.59
2022-09-18T19:34:21.045Z,96611.88
2022-09-18T19:36:50.489Z,96614.19
2022-09-18T19:39:21.095Z,96617.81
2022-09-18T19:42:12.361Z,96603.81
2022-09-18T19:44:49.006Z,96611.13
2022-09-18T19:47:41.035Z,96610.84
2022-09-18T19:50:25.205Z,96603.94
2022-09-18T19:52:52.897Z,96613.66
2022-09-18T19:55:21.078Z,96597.00
2022-09-18T19:57:51.807Z,96600.22
2022-09-18T20:00:18.989Z,96601.25
2022-09-18T20:02:46.763Z,96601.94
2022-09-18T20:05:14.031Z,96600.91
2022-09-18T20:07:42.269Z,96595.38
2022-09-18T20:10:13.261Z,96591.56
2022-09-18T20:12:42.250Z,96593.88
2022-09-18T20:15:11.551Z,96589.69
2022-09-18T20:17:39.891Z,96585.00
2022-09-18T20:20:08.804Z,96574.66
2022-09-18T20:22:39.939Z,96583.94
2022-09-18T20:25:08.967Z,96583.13
2022-09-18T20:27:40.836Z,96574.94
2022-09-18T20:30:12.696Z,96571.22
2022-09-18T20:32:39.947Z,96570.88
2022-09-18T20:35:07.710Z,96571.16
2022-09-18T20:37:35.058Z,96567.28
2022-09-18T20:40:05.361Z,96569.00
2022-09-18T20:42:34.612Z,96569.00
2022-09-18T20:45:02.551Z,96568.84
2022-09-18T20:47:37.569Z,96553.84
2022-09-18T20:50:15.107Z,96557.00
2022-09-18T20:52:43.755Z,96558.84
2022-09-18T20:55:15.782Z,96552.00
2022-09-18T20:57:46.578Z,96550.16
2022-09-18T21:00:16.290Z,96558.75
2022-09-18T21:02:49.382Z,96549.69
2022-09-18T21:05:17.052Z,96544.13
2022-09-18T21:07:45.733Z,96540.88
2022-09-18T21:10:14.520Z,96542.22
2022-09-18T21:12:41.880Z,96541.44
2022-09-18T21:15:15.633Z,96535.38
2022-09-18T21:17:43.170Z,96544.13
2022-09-18T21:20:11.002Z,96544.00
2022-09-18T21:23:01.178Z,96540.81
2022-09-18T21:25:31.060Z,96528.38
2022-09-18T21:27:58.416Z,96533.63
2022-09-18T21:30:26.751Z,96531.47
2022-09-18T21:32:55.737Z,96537.25
2022-09-18T21:35:23.258Z,96524.50
2022-09-18T21:37:52.170Z,96523.34
2022-09-18T21:40:19.451Z,96522.94
2022-09-18T21:42:47.737Z,96516.22
2022-09-18T21:45:19.612Z,96518.66
2022-09-18T21:47:49.640Z,96516.66
2022-09-18T21:50:17.130Z,96521.06
2022-09-18T21:52:44.851Z,96517.06
2022-09-18T21:55:12.272Z,96509.66
2022-09-18T21:57:40.229Z,96517.66
2022-09-18T22:00:09.788Z,96510.84
2022-09-18T22:02:41.124Z,96510.50
2022-09-18T22:05:09.181Z,96511.66
2022-09-18T22:07:37.499Z,96506.09
2022-09-18T22:10:06.737Z,96514.44
2022-09-18T22:12:34.140Z,96514.84
2022-09-18T22:15:01.459Z,96521.28
2022-09-18T22:17:28.785Z,96514.50
2022-09-18T22:19:56.588Z,96514.69
2022-09-18T22:22:23.882Z,96506.66
2022-09-18T22:24:51.155Z,96510.13
2022-09-18T22:27:18.573Z,96502.81
2022-09-18T22:29:46.071Z,96497.13
2022-09-18T22:32:13.377Z,96508.75
2022-09-18T22:34:41.672Z,96506.09
2022-09-18T22:37:11.633Z,96495.31
2022-09-18T22:39:38.866Z,96500.53
2022-09-18T22:42:06.119Z,96497.72
2022-09-18T22:44:33.460Z,96490.63
2022-09-18T22:47:02.180Z,96491.28
2022-09-18T22:49:29.416Z,96494.81
2022-09-18T22:51:56.840Z,96493.06
2022-09-18T22:54:26.531Z,96495.47
2022-09-18T22:56:56.935Z,96494.94
2022-09-18T22:59:26.789Z,96495.28
2022-09-18T23:02:04.690Z,96485.78
2022-09-18T23:04:33.783Z,96486.84
2022-09-18T23:07:01.771Z,96483.09
2022-09-18T23:09:29.685Z,96478.09
2022-09-18T23:11:58.265Z,96479.44
2022-09-18T23:14:28.666Z,96486.84
2022-09-18T23:16:57.433Z,96485.78
2022-09-18T23:19:29.339Z,96490.50
2022-09-18T23:21:56.954Z,96484.09
2022-09-18T23:24:28.569Z,96478.44
2022-09-18T23:26:58.279Z,96478.50
2022-09-18T23:29:28.527Z,96490.31
2022-09-18T23:31:59.149Z,96484.84
2022-09-18T23:34:31.476Z,96474.09
2022-09-18T23:36:59.957Z,96473.06
2022-09-18T23:39:34.668Z,96472.38
2022-09-18T23:42:03.824Z,96469.25
2022-09-18T23:44:31.690Z,96466.63
2022-09-18T23:47:00.108Z,96470.28
2022-09-18T23:49:28.512Z,96469.47
2022-09-18T23:51:57.104Z,96466.56
2022-09-18T23:54:27.352Z,96464.56
2022-09-18T23:56:55.073Z,96464.22
2022-09-18T23:59:24.630Z,96471.06
